Kezdőlap
METAR-TAF:

METAR-TAF

Repülőterek :

Menomonie Municipal Airport (Score Field)

Menomonie, Wisconsin, Amerikai Egyesült Államok

földrajzi szélesség: 44-53-32N, földrajzi hosszúság: 091-52-04W, magasság: 273 m

Jelenlegi meteorológiai megfigyelések

A jelentés 34 perccel ezelõtt készült, 14:35 UTC
Kelet-délkeleti szél 7 kt
Hőmérséklet 6°C
Páratartalom 61%
Légköri nyomás 1016 hPa
Látótávolság: 16.1 km
Szakadozott felhőzet 5500 lábon
Szakadozott felhőzet 12000 lábon

METAR: KLUM 061435Z AUTO 12007KT 10SM BKN055 BKN120 06/M01 A2999 RMK AO2 T00631011

Idő: 10:09 (15:09 UTC)


TAF: hiányzik

Meteorológiai megfigyelések és előrejelzések több, mint 4000 repülőtéren (METAR és TAF jelentéseket).

A térképen piros és sárga pontok jelzik az elérhető meteorológiai állomásokat.

Mozgassa az egeret a pont fölött, hogy megjelenjen az állomás neve.

Azután kattintson az időjárási megfigyelések és előrejelzések megtekintéséhez.

A térkép megváltoztatása: kattintson a fekete keresztel jelölt zöld gombra ráközelítéshez, a vonallal jelölt zöld gombra távolításhoz, vagy a zöld nyilakra a szomszédos térképek eléréséhez.


METAR-TAF: